Time;durP1;ratioP1;P1;durP2;ratioP2;P2;SDS_P1;SDS_P2;PMS_P1;PMS_P2;Temp;Humidity;BMP_temperature;BMP_pressure;BME280_temperature;BME280_humidity;BME280_pressure;Samples;Min_cycle;Max_cycle;Signal;HPM_P1;HPM_P2
2023/07/03 00:02:21;;;;;;;19.80;6.70;;;17.00;99.90;;;;;;5010803;28;20470;-72
2023/07/03 00:04:46;;;;;;;16.75;7.00;;;17.00;99.90;;;;;;5010661;28;20559;-72
2023/07/03 00:07:14;;;;;;;17.45;7.43;;;17.10;99.90;;;;;;5008535;28;20429;-72
2023/07/03 00:09:40;;;;;;;17.58;7.28;;;17.10;99.90;;;;;;5010435;28;20486;-72
2023/07/03 00:12:06;;;;;;;17.73;6.97;;;17.20;99.90;;;;;;5010703;28;20432;-72
2023/07/03 00:14:31;;;;;;;16.95;7.50;;;17.20;99.90;;;;;;5010818;28;20400;-73
2023/07/03 00:16:57;;;;;;;15.93;6.70;;;17.20;99.90;;;;;;5010644;28;20392;-73
2023/07/03 00:19:26;;;;;;;16.73;7.37;;;17.30;99.90;;;;;;5010512;28;20468;-72
2023/07/03 00:21:52;;;;;;;20.13;7.05;;;17.40;99.90;;;;;;5010375;28;20474;-72
2023/07/03 00:24:18;;;;;;;18.63;6.65;;;17.40;99.90;;;;;;5010109;28;20883;-72
2023/07/03 00:26:44;;;;;;;18.60;7.00;;;17.50;99.90;;;;;;5010407;28;20490;-73
2023/07/03 00:29:09;;;;;;;18.20;7.38;;;17.50;99.90;;;;;;5009641;28;20412;-73
2023/07/03 00:31:35;;;;;;;19.35;7.95;;;17.40;99.90;;;;;;5013292;28;20425;-73
2023/07/03 00:34:00;;;;;;;18.23;6.40;;;17.30;99.90;;;;;;5019523;28;20445;-73
2023/07/03 00:36:26;;;;;;;18.57;7.77;;;17.30;99.90;;;;;;5008778;28;20753;-73
2023/07/03 00:38:57;;;;;;;20.55;6.65;;;17.30;99.90;;;;;;5008688;28;20412;-72
2023/07/03 00:41:24;;;;;;;16.92;7.05;;;17.40;99.90;;;;;;5009664;28;20516;-72
2023/07/03 00:43:49;;;;;;;16.80;7.00;;;17.40;21.30;;;;;;5009685;28;20420;-72
2023/07/03 00:46:15;;;;;;;15.82;6.50;;;17.40;1.10;;;;;;5008772;28;20412;-72
2023/07/03 00:48:41;;;;;;;19.08;6.90;;;17.50;11.10;;;;;;5008726;28;20503;-72
2023/07/03 00:51:08;;;;;;;18.00;7.73;;;17.50;9.30;;;;;;5009562;28;20396;-72
2023/07/03 00:53:34;;;;;;;21.03;6.30;;;17.40;48.70;;;;;;5009516;28;20412;-72
2023/07/03 00:56:00;;;;;;;14.15;5.80;;;17.30;57.30;;;;;;5009814;28;20868;-72
2023/07/03 00:58:26;;;;;;;15.23;6.00;;;17.30;45.90;;;;;;5009674;28;20435;-72
2023/07/03 01:01:01;;;;;;;16.98;6.38;;;17.40;1.00;;;;;;5010146;28;20428;-72
2023/07/03 01:03:35;;;;;;;18.40;7.00;;;17.50;1.00;;;;;;5009784;28;20740;-72
2023/07/03 01:06:05;;;;;;;19.15;7.00;;;17.50;1.00;;;;;;5009331;28;20385;-72
2023/07/03 01:08:31;;;;;;;17.80;6.78;;;17.60;1.00;;;;;;5009457;28;20447;-72
2023/07/03 01:10:57;;;;;;;19.70;7.43;;;17.70;1.00;;;;;;5009552;28;20400;-73
2023/07/03 01:13:25;;;;;;;19.20;7.40;;;17.70;1.00;;;;;;5010332;28;20388;-73
2023/07/03 01:15:51;;;;;;;20.73;6.90;;;17.70;1.00;;;;;;5010148;28;20400;-73
2023/07/03 01:18:17;;;;;;;21.73;7.23;;;17.80;1.00;;;;;;5008560;28;20396;-73
2023/07/03 01:20:51;;;;;;;18.63;6.47;;;17.90;1.00;;;;;;5006594;28;20401;-73
2023/07/03 01:23:36;;;;;;;15.10;5.72;;;17.90;1.00;;;;;;5007013;28;20771;-73
2023/07/03 01:26:04;;;;;;;17.17;6.70;;;17.90;1.00;;;;;;5009535;28;20933;-73
2023/07/03 01:28:32;;;;;;;12.98;5.55;;;18.00;1.00;;;;;;5008181;28;20504;-73
2023/07/03 01:30:59;;;;;;;19.67;6.80;;;18.20;1.00;;;;;;5008874;28;20880;-73
2023/07/03 01:33:30;;;;;;;19.08;6.20;;;18.20;1.00;;;;;;5008808;28;20393;-73
2023/07/03 01:35:57;;;;;;;20.77;6.82;;;18.20;1.00;;;;;;5008713;28;20427;-72
2023/07/03 01:38:24;;;;;;;14.88;5.47;;;18.20;1.00;;;;;;5009495;28;20743;-73
2023/07/03 01:40:53;;;;;;;16.13;6.95;;;18.20;1.00;;;;;;5008716;28;20498;-73
2023/07/03 01:43:18;;;;;;;19.05;6.18;;;18.40;1.00;;;;;;5009014;28;20484;-73
2023/07/03 01:45:46;;;;;;;21.67;6.70;;;18.40;1.00;;;;;;5007654;28;20413;-72
2023/07/03 01:48:13;;;;;;;17.27;6.30;;;18.50;1.00;;;;;;4990437;28;20427;-72
2023/07/03 01:50:39;;;;;;;15.93;6.15;;;18.50;1.00;;;;;;5007437;28;20913;-73
2023/07/03 01:53:22;;;;;;;16.27;6.20;;;18.50;1.00;;;;;;5008809;28;20401;-73
2023/07/03 01:55:57;;;;;;;20.25;6.05;;;18.50;1.00;;;;;;5007867;28;20433;-73
2023/07/03 01:58:32;;;;;;;18.33;6.38;;;18.50;1.00;;;;;;5008974;28;20393;-73
2023/07/03 02:01:04;;;;;;;15.13;6.40;;;18.50;1.00;;;;;;5008434;28;20404;-73
2023/07/03 02:03:35;;;;;;;20.02;6.38;;;18.40;1.00;;;;;;5007687;28;20401;-73
2023/07/03 02:06:08;;;;;;;21.40;7.20;;;18.50;1.00;;;;;;5006781;28;20410;-73
2023/07/03 02:08:34;;;;;;;18.45;6.70;;;18.50;1.00;;;;;;4994278;28;20436;-73
2023/07/03 02:11:00;;;;;;;19.37;6.10;;;18.50;1.00;;;;;;5011133;28;20413;-72
2023/07/03 02:13:25;;;;;;;15.05;6.57;;;18.50;1.00;;;;;;5011891;28;20423;-72
2023/07/03 02:15:51;;;;;;;16.63;6.03;;;18.60;99.90;;;;;;5010681;28;20462;-73
2023/07/03 02:18:17;;;;;;;19.97;6.73;;;18.50;1.00;;;;;;5011615;28;20451;-73
2023/07/03 02:20:51;;;;;;;21.33;7.00;;;18.50;99.90;;;;;;5011784;28;20784;-73
2023/07/03 02:23:16;;;;;;;17.33;6.60;;;18.60;1.00;;;;;;5012033;28;20428;-73
2023/07/03 02:25:43;;;;;;;16.00;6.25;;;18.50;1.00;;;;;;5010743;28;20451;-73
2023/07/03 02:28:09;;;;;;;14.55;5.90;;;18.60;1.00;;;;;;5011538;28;20432;-73
2023/07/03 02:30:35;;;;;;;19.27;6.40;;;18.60;1.00;;;;;;5011037;28;20409;-74
2023/07/03 02:33:00;;;;;;;17.20;6.30;;;18.60;1.00;;;;;;5010993;28;20495;-74
2023/07/03 02:35:26;;;;;;;17.57;5.70;;;18.50;1.00;;;;;;5011289;28;20914;-72
2023/07/03 02:37:51;;;;;;;17.73;6.17;;;18.50;1.00;;;;;;5011905;28;20408;-72
2023/07/03 02:40:17;;;;;;;22.07;7.70;;;18.40;1.00;;;;;;5011187;28;20409;-72
2023/07/03 02:42:42;;;;;;;15.33;5.53;;;18.50;1.00;;;;;;5009544;28;20401;-72
2023/07/03 02:45:09;;;;;;;19.20;6.60;;;18.50;1.00;;;;;;5010787;28;20409;-72
2023/07/03 02:47:36;;;;;;;15.53;5.93;;;18.60;1.00;;;;;;5011099;28;20827;-72
2023/07/03 02:50:03;;;;;;;14.53;6.00;;;18.50;1.00;;;;;;5010299;28;20404;-72
2023/07/03 02:52:30;;;;;;;17.25;6.60;;;18.50;1.00;;;;;;5011033;28;20554;-72
2023/07/03 02:54:56;;;;;;;17.27;6.60;;;18.40;1.00;;;;;;5010220;28;20899;-72
2023/07/03 02:57:21;;;;;;;20.45;6.22;;;18.40;1.00;;;;;;5010070;28;20421;-72
2023/07/03 02:59:47;;;;;;;17.70;6.60;;;18.40;1.00;;;;;;5010085;28;20420;-71
2023/07/03 03:02:12;;;;;;;18.73;6.67;;;18.30;1.00;;;;;;5010075;28;20416;-71
2023/07/03 03:04:38;;;;;;;17.53;6.50;;;18.40;1.00;;;;;;5010820;28;20412;-72
2023/07/03 03:07:03;;;;;;;15.23;6.03;;;18.40;1.00;;;;;;5010029;28;20412;-72
2023/07/03 03:09:29;;;;;;;14.70;6.40;;;18.40;1.00;;;;;;5009945;28;20487;-72
2023/07/03 03:11:54;;;;;;;22.63;6.57;;;18.40;1.00;;;;;;5011079;28;20483;-72
2023/07/03 03:14:20;;;;;;;16.55;6.63;;;18.40;1.00;;;;;;5009268;28;20717;-72
2023/07/03 03:16:45;;;;;;;18.60;6.80;;;18.50;1.00;;;;;;5006275;28;20405;-72
2023/07/03 03:19:11;;;;;;;20.35;7.20;;;18.50;1.00;;;;;;5010706;28;20405;-72
2023/07/03 03:21:38;;;;;;;15.43;6.00;;;18.50;1.00;;;;;;5010522;28;20491;-72
2023/07/03 03:24:04;;;;;;;14.82;5.40;;;18.40;1.00;;;;;;5009466;28;20413;-72
2023/07/03 03:26:29;;;;;;;16.83;5.88;;;18.50;1.00;;;;;;5009658;28;20413;-72
2023/07/03 03:28:55;;;;;;;17.67;6.15;;;18.50;1.00;;;;;;5008950;28;20559;-72
2023/07/03 03:31:20;;;;;;;14.90;5.93;;;18.40;1.00;;;;;;5008608;28;20504;-72
2023/07/03 03:33:46;;;;;;;17.70;7.00;;;18.50;1.00;;;;;;5010900;28;20389;-72
2023/07/03 03:36:11;;;;;;;18.47;6.10;;;18.50;1.00;;;;;;5009149;28;20441;-72
2023/07/03 03:38:37;;;;;;;15.57;5.93;;;18.60;1.00;;;;;;5010210;28;20397;-73
2023/07/03 03:41:04;;;;;;;16.50;7.18;;;18.60;1.00;;;;;;5009460;28;20501;-72
2023/07/03 03:43:30;;;;;;;20.40;7.03;;;18.70;1.00;;;;;;5008670;28;20417;-72
2023/07/03 03:46:02;;;;;;;18.10;6.97;;;18.60;1.00;;;;;;5009389;28;20405;-72
2023/07/03 03:48:30;;;;;;;18.47;6.80;;;18.60;1.00;;;;;;5009924;28;20439;-72
2023/07/03 03:50:56;;;;;;;17.67;7.03;;;18.60;1.00;;;;;;5008377;28;20409;-72
2023/07/03 03:53:22;;;;;;;18.70;6.53;;;18.60;1.00;;;;;;5010983;28;20389;-72
2023/07/03 03:55:49;;;;;;;17.90;6.68;;;18.50;1.00;;;;;;5011068;28;20404;-72
2023/07/03 03:58:15;;;;;;;16.20;6.40;;;18.60;1.00;;;;;;5010581;28;20748;-72
2023/07/03 04:00:42;;;;;;;16.95;6.22;;;18.60;1.00;;;;;;5008153;28;20389;-72
2023/07/03 04:03:07;;;;;;;14.75;5.43;;;18.50;1.00;;;;;;5009662;28;20803;-72
2023/07/03 04:05:33;;;;;;;14.00;5.40;;;18.60;1.00;;;;;;5010190;28;20409;-72
2023/07/03 04:07:58;;;;;;;15.80;5.50;;;18.60;1.00;;;;;;5008543;28;20429;-72
2023/07/03 04:10:24;;;;;;;21.33;6.70;;;18.50;1.00;;;;;;5009477;28;20835;-72
2023/07/03 04:12:51;;;;;;;17.00;6.03;;;18.70;1.00;;;;;;5009832;28;20416;-72
2023/07/03 04:15:16;;;;;;;17.23;6.32;;;18.80;1.00;;;;;;5009456;28;20808;-72
2023/07/03 04:17:42;;;;;;;17.15;5.50;;;18.80;1.00;;;;;;5005349;28;20495;-73
2023/07/03 04:20:10;;;;;;;23.40;7.00;;;18.90;1.00;;;;;;4997234;28;20461;-73
2023/07/03 04:22:36;;;;;;;20.10;7.20;;;18.90;1.00;;;;;;5007977;28;20491;-73
2023/07/03 04:25:02;;;;;;;15.40;5.90;;;19.00;1.00;;;;;;5008916;28;20496;-73
2023/07/03 04:27:27;;;;;;;15.05;6.47;;;19.00;1.00;;;;;;5009392;28;20777;-73
2023/07/03 04:29:53;;;;;;;20.02;6.50;;;19.00;1.00;;;;;;5009904;28;20392;-73
2023/07/03 04:32:19;;;;;;;16.97;6.70;;;19.00;1.00;;;;;;5008712;28;20425;-73
2023/07/03 04:34:44;;;;;;;19.07;7.37;;;19.10;1.00;;;;;;4994578;28;20498;-73
2023/07/03 04:37:10;;;;;;;17.50;7.10;;;19.30;1.00;;;;;;5002887;28;20416;-73
2023/07/03 04:39:35;;;;;;;20.08;6.50;;;19.30;1.00;;;;;;5008737;28;20528;-73
2023/07/03 04:42:01;;;;;;;15.25;5.93;;;19.30;99.90;;;;;;5008175;28;20883;-74
2023/07/03 04:44:27;;;;;;;17.15;5.80;;;19.30;99.90;;;;;;5009166;28;20490;-73
2023/07/03 04:46:56;;;;;;;18.02;5.95;;;19.30;99.90;;;;;;5005051;28;20462;-73
2023/07/03 04:49:26;;;;;;;15.13;5.73;;;19.50;99.90;;;;;;4991336;28;20409;-73
2023/07/03 04:51:54;;;;;;;17.50;6.43;;;19.60;99.90;;;;;;4991490;28;20400;-73
2023/07/03 04:54:20;;;;;;;16.13;6.00;;;19.70;99.90;;;;;;4999280;28;20944;-72
2023/07/03 04:56:48;;;;;;;16.00;6.25;;;19.80;99.90;;;;;;4989500;28;20598;-72
2023/07/03 04:59:14;;;;;;;16.50;5.45;;;19.90;99.90;;;;;;4998564;28;20396;-71
2023/07/03 05:01:42;;;;;;;19.30;7.15;;;20.00;99.90;;;;;;5002408;28;20960;-70
2023/07/03 05:04:11;;;;;;;16.02;5.70;;;20.00;99.90;;;;;;5000412;28;20418;-71
2023/07/03 05:06:38;;;;;;;15.03;5.97;;;19.90;99.90;;;;;;5000150;28;21194;-76
2023/07/03 05:09:03;;;;;;;13.37;5.10;;;19.90;99.90;;;;;;5006718;28;20953;-76
2023/07/03 05:11:30;;;;;;;13.45;5.13;;;19.70;99.90;;;;;;5006266;28;20400;-76
2023/07/03 05:13:56;;;;;;;17.08;6.22;;;19.70;99.90;;;;;;5006849;28;20448;-76
2023/07/03 05:16:22;;;;;;;15.70;6.03;;;19.70;99.90;;;;;;5008213;28;20427;-75
2023/07/03 05:18:48;;;;;;;18.05;5.60;;;19.70;99.90;;;;;;5008491;28;20413;-76
2023/07/03 05:21:13;;;;;;;16.80;5.40;;;19.80;99.90;;;;;;5008561;28;20396;-76
2023/07/03 05:23:39;;;;;;;17.20;5.35;;;19.90;99.90;;;;;;5008435;28;20408;-76
2023/07/03 05:26:05;;;;;;;13.55;5.97;;;20.00;99.90;;;;;;5008281;28;20476;-76
2023/07/03 05:28:31;;;;;;;13.02;5.43;;;19.90;99.90;;;;;;5008564;28;20475;-76
2023/07/03 05:30:57;;;;;;;14.40;5.20;;;19.90;99.90;;;;;;5008258;28;20916;-75
2023/07/03 05:33:24;;;;;;;14.55;5.40;;;20.00;99.90;;;;;;5008797;28;20468;-76
2023/07/03 05:35:50;;;;;;;16.00;5.40;;;19.90;99.90;;;;;;5008373;28;20413;-76
2023/07/03 05:38:15;;;;;;;20.03;6.47;;;19.90;99.90;;;;;;5007880;28;20404;-76
2023/07/03 05:40:41;;;;;;;15.00;5.60;;;19.90;99.90;;;;;;5010660;28;20392;-76
2023/07/03 05:43:06;;;;;;;16.87;6.30;;;20.00;99.90;;;;;;5012047;28;20869;-76
2023/07/03 05:45:32;;;;;;;17.07;5.30;;;20.20;99.90;;;;;;5012251;28;20381;-76
2023/07/03 05:47:57;;;;;;;14.52;5.82;;;20.20;99.90;;;;;;5012127;28;20416;-77
2023/07/03 05:50:23;;;;;;;11.93;5.50;;;20.10;99.90;;;;;;5012021;28;20400;-76
2023/07/03 05:52:48;;;;;;;15.98;5.53;;;20.30;99.90;;;;;;5012987;28;20412;-76
2023/07/03 05:55:14;;;;;;;13.85;5.15;;;20.40;99.90;;;;;;5011798;28;20512;-74
2023/07/03 05:57:40;;;;;;;15.32;4.72;;;20.50;99.90;;;;;;5011798;28;20446;-74
2023/07/03 06:00:12;;;;;;;16.20;5.50;;;20.60;99.90;;;;;;5011970;28;20484;-74
2023/07/03 06:02:42;;;;;;;15.80;5.93;;;20.80;99.90;;;;;;5011964;28;20719;-74
2023/07/03 06:05:09;;;;;;;17.97;5.27;;;21.10;99.90;;;;;;5011584;28;20889;-74
2023/07/03 06:07:34;;;;;;;14.25;5.38;;;20.90;99.90;;;;;;5011638;28;20512;-74
2023/07/03 06:10:01;;;;;;;16.17;5.35;;;21.00;99.90;;;;;;5011489;28;20460;-74
2023/07/03 06:12:29;;;;;;;15.13;5.88;;;21.10;99.90;;;;;;5011683;28;20802;-74
2023/07/03 06:14:59;;;;;;;18.90;5.80;;;21.00;99.90;;;;;;5012242;28;20555;-74
2023/07/03 06:17:25;;;;;;;14.70;4.70;;;21.00;99.90;;;;;;5011746;28;20400;-74
2023/07/03 06:19:51;;;;;;;16.95;5.90;;;21.00;99.90;;;;;;5012097;28;20442;-74
2023/07/03 06:22:17;;;;;;;15.00;6.00;;;21.20;99.90;;;;;;5011818;28;20408;-74
2023/07/03 06:24:43;;;;;;;17.38;6.07;;;21.30;99.90;;;;;;5011792;28;20403;-77
2023/07/03 06:27:09;;;;;;;15.53;5.47;;;21.40;99.90;;;;;;5011683;28;20409;-74
2023/07/03 06:29:35;;;;;;;17.17;4.82;;;21.30;99.90;;;;;;5013168;28;20392;-73
2023/07/03 06:32:00;;;;;;;13.93;6.30;;;21.30;99.90;;;;;;5012065;28;20381;-74
2023/07/03 06:34:26;;;;;;;13.15;5.60;;;21.30;99.90;;;;;;5011231;28;20401;-74
2023/07/03 06:36:52;;;;;;;15.18;5.00;;;21.30;99.90;;;;;;5012081;28;20397;-74
2023/07/03 06:39:17;;;;;;;13.57;4.57;;;21.20;99.90;;;;;;5011470;28;20389;-74
2023/07/03 06:41:43;;;;;;;14.15;5.15;;;21.30;99.90;;;;;;5011168;28;20433;-74
2023/07/03 06:44:16;;;;;;;16.25;5.30;;;21.50;99.90;;;;;;5011123;28;20400;-74
2023/07/03 06:46:42;;;;;;;18.58;6.15;;;21.80;99.90;;;;;;5011370;28;20381;-75
2023/07/03 06:49:08;;;;;;;14.50;5.22;;;21.90;99.90;;;;;;5010842;28;20540;-74
2023/07/03 06:51:35;;;;;;;13.48;4.90;;;21.90;99.90;;;;;;5010771;28;20411;-74
2023/07/03 06:54:00;;;;;;;16.13;5.15;;;21.80;99.90;;;;;;5010439;28;20750;-74
2023/07/03 06:56:27;;;;;;;13.90;5.20;;;21.90;99.90;;;;;;5010909;28;20432;-74
2023/07/03 06:58:52;;;;;;;16.30;5.20;;;22.00;99.90;;;;;;5010872;28;20385;-74
2023/07/03 07:01:23;;;;;;;10.52;4.53;;;22.30;99.90;;;;;;5011510;28;20405;-75
2023/07/03 07:03:49;;;;;;;13.27;4.90;;;22.50;99.90;;;;;;5011151;28;20431;-77
2023/07/03 07:06:27;;;;;;;15.67;4.77;;;22.90;99.90;;;;;;5010629;28;20382;-77
2023/07/03 07:08:53;;;;;;;14.10;5.05;;;23.30;99.90;;;;;;5010780;28;20449;-76
2023/07/03 07:11:25;;;;;;;13.27;4.70;;;23.10;99.90;;;;;;5011026;28;20424;-76
2023/07/03 07:13:52;;;;;;;14.63;5.20;;;23.40;99.90;;;;;;5011212;28;20393;-76
2023/07/03 07:16:21;;;;;;;14.15;5.05;;;24.00;99.90;;;;;;4992970;28;20476;-76
2023/07/03 07:18:48;;;;;;;13.15;4.90;;;24.50;99.90;;;;;;5010552;28;20394;-77
2023/07/03 07:21:14;;;;;;;13.20;5.23;;;;;;;;;;5010352;28;21073;-77
2023/07/03 07:23:39;;;;;;;14.75;5.25;;;25.30;99.90;;;;;;5010332;28;20867;-75
2023/07/03 07:26:05;;;;;;;13.82;5.00;;;25.90;99.90;;;;;;5010600;28;20385;-75
2023/07/03 07:28:31;;;;;;;11.68;5.00;;;26.90;99.90;;;;;;5010265;28;20413;-75
2023/07/03 07:30:56;;;;;;;12.95;5.05;;;26.90;99.90;;;;;;5010178;28;21029;-76
2023/07/03 07:33:22;;;;;;;14.38;4.78;;;26.10;99.90;;;;;;5010442;28;20404;-75
2023/07/03 07:35:49;;;;;;;14.20;4.72;;;26.40;99.90;;;;;;4992594;28;20479;-75
2023/07/03 07:38:14;;;;;;;14.35;4.93;;;26.10;99.90;;;;;;5010312;28;20813;-75
2023/07/03 07:40:40;;;;;;;15.52;5.70;;;26.30;99.90;;;;;;5009710;28;20479;-75
2023/07/03 07:43:06;;;;;;;13.75;4.72;;;27.00;99.90;;;;;;5010022;28;20913;-75
2023/07/03 07:45:32;;;;;;;13.80;5.65;;;27.50;99.90;;;;;;5009986;28;20396;-75
2023/07/03 07:47:58;;;;;;;13.63;5.37;;;28.30;99.90;;;;;;5009490;28;20856;-75
2023/07/03 07:50:24;;;;;;;16.23;5.45;;;28.20;99.90;;;;;;5009686;28;20389;-75
2023/07/03 07:52:50;;;;;;;12.30;4.70;;;27.70;99.90;;;;;;5010256;28;20424;-75
2023/07/03 07:55:16;;;;;;;13.93;4.97;;;28.10;99.90;;;;;;4992249;28;20825;-75
2023/07/03 07:57:42;;;;;;;14.20;5.10;;;27.80;99.90;;;;;;5009720;28;20447;-76
2023/07/03 08:00:08;;;;;;;15.67;5.57;;;26.10;99.90;;;;;;5009630;28;20393;-78
2023/07/03 08:02:34;;;;;;;17.73;5.82;;;25.60;99.90;;;;;;5009110;28;20758;-77
2023/07/03 08:05:00;;;;;;;15.57;5.30;;;24.70;99.90;;;;;;5009456;28;20479;-77
2023/07/03 08:07:25;;;;;;;18.03;5.63;;;23.60;99.90;;;;;;5009450;28;20500;-75
2023/07/03 08:09:51;;;;;;;16.10;5.23;;;24.00;99.90;;;;;;5010218;28;20420;-75
2023/07/03 08:12:16;;;;;;;13.30;5.10;;;24.60;99.90;;;;;;5009469;28;20396;-75
2023/07/03 08:14:42;;;;;;;13.37;5.37;;;24.40;99.90;;;;;;5009584;28;20400;-75
2023/07/03 08:17:08;;;;;;;13.07;5.13;;;23.60;99.90;;;;;;5009692;28;20385;-75
2023/07/03 08:19:33;;;;;;;14.35;4.90;;;23.40;99.90;;;;;;5009269;28;20412;-75
2023/07/03 08:21:59;;;;;;;14.13;4.90;;;24.60;99.90;;;;;;5009296;28;20397;-75
2023/07/03 08:24:24;;;;;;;15.47;5.00;;;24.10;99.90;;;;;;5009314;28;20401;-75
2023/07/03 08:26:51;;;;;;;15.33;4.50;;;22.80;99.90;;;;;;5009596;28;20912;-75
2023/07/03 08:29:16;;;;;;;14.07;4.50;;;22.80;99.90;;;;;;5009164;28;20393;-76
2023/07/03 08:31:42;;;;;;;9.75;3.85;;;23.50;99.90;;;;;;5009060;28;20447;-76
2023/07/03 08:34:09;;;;;;;12.98;4.20;;;24.50;99.90;;;;;;5008673;28;20416;-76
2023/07/03 08:36:35;;;;;;;12.85;4.55;;;24.20;99.90;;;;;;5009091;28;20412;-77
2023/07/03 08:39:02;;;;;;;17.05;5.30;;;24.50;99.90;;;;;;5009213;28;20393;-76
2023/07/03 08:41:28;;;;;;;13.77;4.60;;;25.00;99.90;;;;;;5009167;28;21041;-77
2023/07/03 08:43:56;;;;;;;11.40;4.20;;;24.40;99.90;;;;;;5009121;28;20531;-77
2023/07/03 08:46:27;;;;;;;16.27;4.63;;;24.30;99.90;;;;;;5009856;28;20388;-77
2023/07/03 08:48:57;;;;;;;15.07;5.35;;;24.40;99.90;;;;;;5008907;28;20415;-77
2023/07/03 08:51:26;;;;;;;11.95;4.65;;;24.00;99.90;;;;;;5009668;28;20397;-78
2023/07/03 08:53:56;;;;;;;13.48;4.00;;;23.70;99.90;;;;;;5009679;28;20412;-78
2023/07/03 08:56:24;;;;;;;17.07;4.63;;;23.90;99.90;;;;;;5009611;28;20404;-78
2023/07/03 08:58:54;;;;;;;13.38;4.30;;;24.00;99.90;;;;;;5009522;28;20443;-78
2023/07/03 09:01:31;;;;;;;12.30;4.55;;;24.50;99.90;;;;;;5009590;28;20520;-76
2023/07/03 09:04:27;;;;;;;12.80;4.53;;;26.10;99.90;;;;;;5008687;28;20496;-76
2023/07/03 09:07:00;;;;;;;13.20;4.77;;;26.20;99.90;;;;;;5008525;28;20397;-75
2023/07/03 09:09:37;;;;;;;18.50;4.80;;;27.20;99.90;;;;;;5008864;28;20385;-75
2023/07/03 09:12:31;;;;;;;13.15;4.75;;;26.60;99.90;;;;;;5008413;28;20435;-75
2023/07/03 09:15:25;;;;;;;13.60;4.50;;;26.40;99.90;;;;;;5004779;28;20410;-75
2023/07/03 09:17:54;;;;;;;10.95;3.83;;;27.30;99.90;;;;;;4993116;28;20445;-75
2023/07/03 09:20:20;;;;;;;12.63;3.70;;;27.20;99.90;;;;;;5011142;28;20479;-75
2023/07/03 09:22:55;;;;;;;11.63;3.97;;;27.20;99.90;;;;;;5029848;28;20725;-76
2023/07/03 09:25:26;;;;;;;12.40;3.83;;;27.10;99.90;;;;;;5022902;28;20420;-76
2023/07/03 09:27:55;;;;;;;12.48;3.40;;;26.50;99.90;;;;;;5004924;28;20441;-75
2023/07/03 09:30:21;;;;;;;13.05;3.92;;;26.30;99.90;;;;;;4993403;28;20829;-76
2023/07/03 09:32:46;;;;;;;13.90;4.90;;;27.20;99.90;;;;;;4992653;28;20473;-76
2023/07/03 09:35:17;;;;;;;12.70;3.85;;;27.60;99.90;;;;;;4992940;28;20382;-76
2023/07/03 09:37:46;;;;;;;12.90;4.00;;;28.00;99.90;;;;;;4992739;28;20394;-76
2023/07/03 09:40:39;;;;;;;9.80;3.60;;;28.60;99.90;;;;;;4992710;28;20930;-76
2023/07/03 09:43:14;;;;;;;12.02;3.88;;;28.80;99.90;;;;;;4991664;28;20418;-76
2023/07/03 09:45:40;;;;;;;11.32;3.40;;;27.90;99.90;;;;;;4992537;28;20517;-76
2023/07/03 09:48:16;;;;;;;10.35;2.85;;;28.10;99.90;;;;;;4992228;28;20422;-76
2023/07/03 09:50:43;;;;;;;8.50;2.70;;;27.70;99.90;;;;;;4992566;28;20455;-76
2023/07/03 09:53:21;;;;;;;10.20;3.30;;;27.20;99.90;;;;;;4992417;28;20802;-76
2023/07/03 09:55:52;;;;;;;9.10;3.20;;;27.10;99.90;;;;;;4992745;28;20426;-76
2023/07/03 09:58:18;;;;;;;13.05;3.58;;;28.00;99.90;;;;;;4992689;28;20383;-76
2023/07/03 10:00:47;;;;;;;9.67;3.00;;;28.70;99.90;;;;;;4992150;28;20399;-76
2023/07/03 10:03:13;;;;;;;11.57;3.30;;;27.90;99.90;;;;;;4992189;28;20379;-76
2023/07/03 10:05:43;;;;;;;12.40;3.10;;;28.00;99.90;;;;;;4991729;28;20893;-76
2023/07/03 10:08:09;;;;;;;8.40;3.22;;;26.70;99.90;;;;;;4992012;28;20481;-76
2023/07/03 10:10:35;;;;;;;10.35;3.00;;;26.20;99.90;;;;;;4991819;28;20485;-76
2023/07/03 10:13:07;;;;;;;9.60;2.78;;;26.20;99.90;;;;;;4992118;28;20394;-76
2023/07/03 10:15:36;;;;;;;11.18;2.95;;;26.60;99.90;;;;;;4991773;28;20485;-76
2023/07/03 10:18:23;;;;;;;11.23;3.30;;;26.50;99.90;;;;;;4991874;28;20410;-75
2023/07/03 10:20:50;;;;;;;12.23;2.78;;;26.60;99.90;;;;;;4992729;28;20394;-75
2023/07/03 10:23:21;;;;;;;10.40;2.90;;;26.10;99.90;;;;;;4991866;28;20426;-75
2023/07/03 10:25:55;;;;;;;8.55;2.95;;;26.60;99.90;;;;;;4991613;28;20950;-75
2023/07/03 10:28:33;;;;;;;10.10;2.95;;;26.80;99.90;;;;;;4992485;28;20419;-76
2023/07/03 10:31:04;;;;;;;8.70;2.35;;;27.20;99.90;;;;;;4991498;28;20394;-76
2023/07/03 10:33:37;;;;;;;11.35;2.80;;;27.20;99.90;;;;;;4991782;28;20482;-76
2023/07/03 10:36:07;;;;;;;9.20;2.60;;;26.60;99.90;;;;;;4991722;28;20402;-76
2023/07/03 10:38:40;;;;;;;9.13;2.83;;;26.30;99.90;;;;;;4991574;28;20399;-75
2023/07/03 10:41:16;;;;;;;11.23;2.50;;;26.00;99.90;;;;;;4991122;28;20770;-76
2023/07/03 10:43:49;;;;;;;9.48;3.10;;;25.60;99.90;;;;;;4991717;28;20391;-78
2023/07/03 10:46:23;;;;;;;11.77;3.10;;;24.90;99.90;;;;;;4991338;28;20398;-76
2023/07/03 10:48:51;;;;;;;10.53;3.27;;;24.80;99.90;;;;;;4992284;28;20434;-76
2023/07/03 10:51:33;;;;;;;8.90;2.83;;;25.40;99.90;;;;;;4999490;28;20948;-76
2023/07/03 10:54:12;;;;;;;9.23;2.53;;;25.80;99.90;;;;;;5011227;28;20440;-76
2023/07/03 10:56:47;;;;;;;9.35;2.70;;;26.40;99.90;;;;;;5010788;28;20746;-76
2023/07/03 10:59:21;;;;;;;8.88;2.20;;;26.90;99.90;;;;;;5010369;28;20389;-75
2023/07/03 11:01:56;;;;;;;10.30;2.60;;;26.40;99.90;;;;;;5010695;28;20408;-75
2023/07/03 11:04:36;;;;;;;7.40;2.50;;;26.20;99.90;;;;;;5011696;28;20395;-75
2023/07/03 11:07:08;;;;;;;10.20;2.92;;;25.90;99.90;;;;;;5010772;28;20392;-75
2023/07/03 11:09:41;;;;;;;9.88;2.50;;;26.20;99.90;;;;;;5010824;28;20500;-76
2023/07/03 11:12:15;;;;;;;7.85;2.45;;;26.40;99.90;;;;;;5010656;28;20400;-76
2023/07/03 11:15:07;;;;;;;8.77;2.63;;;25.90;99.90;;;;;;5010123;28;20400;-75
2023/07/03 11:17:52;;;;;;;8.10;2.90;;;25.60;99.90;;;;;;5010111;28;20765;-75
2023/07/03 11:20:24;;;;;;;12.17;3.23;;;26.50;99.90;;;;;;5025183;28;20432;-75
2023/07/03 11:23:00;;;;;;;7.60;1.98;;;27.20;99.90;;;;;;5030354;28;20474;-75
2023/07/03 11:25:45;;;;;;;12.10;3.13;;;26.00;99.90;;;;;;5030347;28;20399;-75
2023/07/03 11:28:22;;;;;;;11.07;3.03;;;25.60;99.90;;;;;;5029714;28;20730;-75
2023/07/03 11:30:49;;;;;;;9.40;2.92;;;25.70;99.90;;;;;;5032201;28;20403;-77
2023/07/03 11:33:16;;;;;;;10.85;3.03;;;25.40;99.90;;;;;;5033088;28;20434;-77
2023/07/03 11:35:56;;;;;;;9.80;3.40;;;25.30;99.90;;;;;;5033197;28;20394;-77
2023/07/03 11:38:22;;;;;;;10.27;3.40;;;25.40;99.90;;;;;;5031923;28;20411;-75
2023/07/03 11:40:53;;;;;;;8.80;2.90;;;25.60;99.90;;;;;;5029923;28;20414;-75
2023/07/03 11:43:42;;;;;;;8.85;2.50;;;25.30;99.90;;;;;;5030627;28;20406;-77
2023/07/03 11:46:19;;;;;;;12.15;2.60;;;24.60;99.90;;;;;;5030500;28;20871;-77
2023/07/03 11:48:48;;;;;;;8.77;2.33;;;24.50;99.90;;;;;;5029877;28;20426;-75
2023/07/03 11:51:35;;;;;;;9.10;2.37;;;24.10;99.90;;;;;;5029945;28;20767;-75
2023/07/03 11:54:13;;;;;;;9.70;2.60;;;24.30;99.90;;;;;;5029513;28;20453;-75
2023/07/03 11:56:44;;;;;;;8.45;2.70;;;24.00;99.90;;;;;;5011966;28;20687;-75
2023/07/03 11:59:27;;;;;;;9.70;2.85;;;23.80;99.90;;;;;;5029421;28;20399;-75
2023/07/03 12:02:13;;;;;;;9.37;2.80;;;24.30;99.90;;;;;;5029470;28;20391;-75
2023/07/03 12:04:45;;;;;;;11.73;2.60;;;24.60;99.90;;;;;;5029275;28;20391;-75
2023/07/03 12:07:20;;;;;;;9.50;2.40;;;24.70;99.90;;;;;;5029456;28;20414;-75
2023/07/03 12:09:50;;;;;;;9.80;2.33;;;24.70;99.90;;;;;;5029324;28;20903;-75
2023/07/03 12:12:29;;;;;;;11.32;2.90;;;24.30;99.90;;;;;;5028976;28;20477;-75
2023/07/03 12:14:57;;;;;;;8.50;2.90;;;24.50;99.90;;;;;;5029327;28;20874;-75
2023/07/03 12:17:34;;;;;;;8.15;2.58;;;24.90;99.90;;;;;;5030072;28;20411;-75
2023/07/03 12:20:10;;;;;;;11.13;3.10;;;25.30;99.90;;;;;;5011792;28;20427;-75
2023/07/03 12:22:54;;;;;;;7.15;2.13;;;25.60;99.90;;;;;;5029242;28;20398;-75
2023/07/03 12:25:28;;;;;;;10.40;2.70;;;25.20;99.90;;;;;;5029370;28;20395;-75
2023/07/03 12:28:06;;;;;;;6.57;1.95;;;25.20;99.90;;;;;;5028571;28;20526;-75
2023/07/03 12:30:32;;;;;;;9.25;1.83;;;25.00;99.90;;;;;;5029016;28;20959;-75
2023/07/03 12:32:59;;;;;;;7.80;1.75;;;25.20;99.90;;;;;;5029220;28;20395;-75
2023/07/03 12:35:32;;;;;;;7.47;2.00;;;25.50;99.90;;;;;;5028991;28;20396;-75
2023/07/03 12:38:04;;;;;;;7.15;1.70;;;25.50;99.90;;;;;;5029069;28;20398;-75
2023/07/03 12:40:29;;;;;;;6.80;2.03;;;25.20;99.90;;;;;;5028402;28;20391;-75
2023/07/03 12:42:56;;;;;;;6.30;1.70;;;25.80;99.90;;;;;;5028621;28;20402;-75
2023/07/03 12:45:24;;;;;;;7.00;2.10;;;25.80;99.90;;;;;;5029446;28;20383;-75
2023/07/03 12:48:00;;;;;;;7.47;2.13;;;25.90;99.90;;;;;;5029054;28;20513;-75
2023/07/03 12:50:26;;;;;;;6.93;1.70;;;26.30;99.90;;;;;;5028820;28;20884;-75